createdAt,value
2022-11-05T00:01:20.158Z,27.13
2022-11-05T00:04:30.719Z,21.53
2022-11-05T00:07:41.144Z,26.40
2022-11-05T00:10:29.381Z,27.63
2022-11-05T00:13:35.172Z,23.43
2022-11-05T00:16:40.550Z,26.27
2022-11-05T00:19:27.355Z,23.27
2022-11-05T00:22:32.752Z,25.77
2022-11-05T00:25:19.799Z,23.27
2022-11-05T00:28:06.618Z,24.23
2022-11-05T00:30:53.533Z,23.10
2022-11-05T00:33:41.337Z,25.00
2022-11-05T00:36:28.201Z,24.47
2022-11-05T00:39:15.053Z,24.97
2022-11-05T00:42:20.434Z,24.50
2022-11-05T00:45:07.479Z,19.90
2022-11-05T00:48:13.046Z,26.23
2022-11-05T00:50:59.927Z,26.83
2022-11-05T00:53:46.818Z,24.37
2022-11-05T00:56:33.690Z,24.17
2022-11-05T00:59:20.498Z,22.13
2022-11-05T01:02:07.620Z,27.17
2022-11-05T01:04:54.575Z,24.87
2022-11-05T01:07:41.414Z,22.40
2022-11-05T01:10:28.406Z,21.77
2022-11-05T01:13:19.976Z,22.73
2022-11-05T01:16:08.302Z,22.47
2022-11-05T01:18:55.114Z,23.47
2022-11-05T01:21:41.889Z,21.37
2022-11-05T01:24:28.702Z,22.40
2022-11-05T01:27:15.482Z,20.67
2022-11-05T01:30:02.383Z,21.03
2022-11-05T01:32:49.450Z,26.47
2022-11-05T01:35:36.311Z,27.03
2022-11-05T01:38:23.517Z,22.20
2022-11-05T01:41:10.511Z,21.07
2022-11-05T01:43:59.402Z,25.50
2022-11-05T01:46:46.605Z,21.30
2022-11-05T01:49:34.207Z,24.60
2022-11-05T01:52:22.046Z,27.10
2022-11-05T01:55:09.702Z,24.80
2022-11-05T01:57:58.863Z,26.17
2022-11-05T02:00:45.730Z,22.03
2022-11-05T02:03:32.751Z,26.07
2022-11-05T02:06:19.797Z,21.93
2022-11-05T02:09:07.895Z,18.07
2022-11-05T02:11:54.858Z,21.67
2022-11-05T02:14:41.745Z,20.07
2022-11-05T02:17:33.199Z,22.87
2022-11-05T02:20:23.603Z,24.33
2022-11-05T02:23:42.226Z,16.70
2022-11-05T02:26:35.558Z,19.67
2022-11-05T02:29:34.775Z,18.23
2022-11-05T02:32:35.033Z,21.67
2022-11-05T02:35:40.204Z,20.73
2022-11-05T02:38:30.038Z,23.53
2022-11-05T02:41:35.706Z,20.07
2022-11-05T02:44:39.547Z,18.97
2022-11-05T02:47:52.530Z,24.33
2022-11-05T02:50:42.071Z,25.07
2022-11-05T02:53:28.837Z,24.73
2022-11-05T02:56:22.631Z,22.10
2022-11-05T02:59:09.507Z,18.83
2022-11-05T03:01:57.067Z,21.83
2022-11-05T03:04:44.024Z,30.23
2022-11-05T03:07:36.886Z,18.10
2022-11-05T03:10:26.689Z,24.93
2022-11-05T03:13:28.872Z,16.00
2022-11-05T03:16:20.619Z,22.97
2022-11-05T03:19:18.535Z,18.00
2022-11-05T03:22:08.446Z,21.90
2022-11-05T03:24:57.565Z,19.60
2022-11-05T03:27:46.038Z,23.37
2022-11-05T03:30:34.075Z,20.77
2022-11-05T03:33:29.017Z,22.43
2022-11-05T03:36:19.397Z,21.93
2022-11-05T03:39:07.809Z,24.23
2022-11-05T03:41:55.791Z,21.77
2022-11-05T03:44:45.546Z,24.37
2022-11-05T03:47:35.752Z,21.87
2022-11-05T03:50:41.237Z,19.70
2022-11-05T03:53:30.114Z,20.33
2022-11-05T03:56:18.265Z,22.97
2022-11-05T03:59:06.455Z,25.17
2022-11-05T04:01:54.016Z,23.47
2022-11-05T04:04:41.123Z,26.33
2022-11-05T04:07:46.548Z,20.30
2022-11-05T04:10:51.747Z,20.70
2022-11-05T04:13:38.681Z,22.97
2022-11-05T04:16:44.223Z,19.17
2022-11-05T04:19:49.589Z,22.17
2022-11-05T04:22:55.240Z,18.90
2022-11-05T04:25:41.998Z,21.00
2022-11-05T04:28:48.741Z,21.37
2022-11-05T04:31:35.559Z,23.67
2022-11-05T04:34:22.914Z,18.83
2022-11-05T04:37:09.739Z,19.87
2022-11-05T04:39:56.600Z,21.53
2022-11-05T04:42:43.421Z,20.87
2022-11-05T04:45:31.462Z,25.63
2022-11-05T04:48:18.238Z,30.50
2022-11-05T04:51:05.228Z,23.37
2022-11-05T04:53:52.023Z,24.93
2022-11-05T04:56:38.838Z,28.70
2022-11-05T04:59:25.617Z,31.13
2022-11-05T05:02:12.515Z,30.33
2022-11-05T05:04:59.315Z,33.00
2022-11-05T05:07:46.173Z,32.47
2022-11-05T05:10:33.018Z,35.17
2022-11-05T05:13:19.827Z,25.70
2022-11-05T05:16:11.655Z,30.80
2022-11-05T05:18:58.502Z,35.00
2022-11-05T05:21:45.379Z,32.73
2022-11-05T05:24:32.191Z,32.47
2022-11-05T05:27:19.054Z,37.53
2022-11-05T05:30:06.221Z,31.90
2022-11-05T05:32:53.056Z,40.77
2022-11-05T05:35:39.806Z,31.33
2022-11-05T05:38:26.629Z,33.37
2022-11-05T05:41:13.414Z,33.03
2022-11-05T05:44:00.276Z,36.87
2022-11-05T05:46:47.109Z,36.93
2022-11-05T05:49:33.979Z,37.07
2022-11-05T05:52:21.125Z,46.97
2022-11-05T05:55:08.124Z,38.43
2022-11-05T05:57:55.082Z,36.70
2022-11-05T06:00:41.987Z,39.67
2022-11-05T06:03:28.738Z,52.57
2022-11-05T06:06:16.421Z,46.57
2022-11-05T06:09:03.443Z,39.43
2022-11-05T06:11:50.487Z,52.57
2022-11-05T06:14:37.454Z,48.57
2022-11-05T06:17:24.360Z,53.87
2022-11-05T06:20:11.885Z,45.47
2022-11-05T06:22:58.801Z,53.10
2022-11-05T06:25:45.659Z,62.87
2022-11-05T06:28:33.643Z,61.00
2022-11-05T06:31:21.417Z,60.97
2022-11-05T06:34:08.312Z,58.13
2022-11-05T06:36:55.194Z,64.80
2022-11-05T06:39:42.151Z,64.53
2022-11-05T06:42:28.994Z,72.73
2022-11-05T06:45:15.957Z,83.33
2022-11-05T06:48:02.925Z,81.67
2022-11-05T06:50:49.869Z,77.10
2022-11-05T06:53:36.711Z,77.70
2022-11-05T06:56:23.591Z,69.70
2022-11-05T06:59:10.627Z,65.77
2022-11-05T07:01:57.669Z,74.80
2022-11-05T07:04:44.589Z,65.93
2022-11-05T07:07:31.501Z,70.67
2022-11-05T07:10:19.073Z,70.60
2022-11-05T07:13:08.316Z,67.80
2022-11-05T07:15:55.720Z,58.17
2022-11-05T07:18:42.595Z,58.87
2022-11-05T07:21:29.522Z,63.27
2022-11-05T07:24:16.597Z,54.60
2022-11-05T07:27:03.459Z,58.50
2022-11-05T07:29:50.335Z,70.07
2022-11-05T07:32:37.919Z,60.70
2022-11-05T07:35:24.791Z,57.83
2022-11-05T07:38:11.911Z,72.73
2022-11-05T07:41:01.798Z,68.70
2022-11-05T07:43:48.703Z,66.27
2022-11-05T07:46:35.586Z,62.13
2022-11-05T07:49:23.914Z,65.83
2022-11-05T07:52:10.747Z,68.87
2022-11-05T07:54:57.740Z,63.23
2022-11-05T07:57:45.526Z,62.30
2022-11-05T08:00:33.241Z,58.10
2022-11-05T08:03:20.723Z,65.13
2022-11-05T08:06:07.891Z,58.27
2022-11-05T08:08:54.734Z,61.13
2022-11-05T08:11:41.633Z,56.43
2022-11-05T08:14:28.487Z,56.00
2022-11-05T08:17:18.420Z,52.37
2022-11-05T08:20:05.767Z,56.37
2022-11-05T08:22:52.675Z,55.60
2022-11-05T08:25:39.960Z,51.30
2022-11-05T08:28:26.933Z,48.30
2022-11-05T08:31:15.578Z,51.03
2022-11-05T08:34:02.879Z,52.97
2022-11-05T08:36:49.809Z,46.57
2022-11-05T08:39:36.771Z,48.13
2022-11-05T08:42:23.627Z,43.93
2022-11-05T08:45:10.573Z,37.97
2022-11-05T08:48:00.606Z,40.67
2022-11-05T08:50:48.395Z,39.27
2022-11-05T08:53:35.210Z,37.70
2022-11-05T08:56:23.374Z,35.30
2022-11-05T08:59:10.207Z,37.97
2022-11-05T09:01:57.308Z,32.97
2022-11-05T09:04:44.498Z,36.47
2022-11-05T09:07:31.472Z,36.87
2022-11-05T09:10:18.448Z,35.50
2022-11-05T09:13:05.752Z,32.27
2022-11-05T09:15:52.899Z,30.33
2022-11-05T09:18:39.938Z,31.97
2022-11-05T09:21:26.754Z,29.87
2022-11-05T09:24:13.904Z,30.07
2022-11-05T09:27:00.707Z,28.80
2022-11-05T09:29:47.794Z,27.23
2022-11-05T09:32:34.643Z,25.17
2022-11-05T09:35:21.523Z,24.80
2022-11-05T09:38:08.668Z,22.90
2022-11-05T09:41:03.865Z,27.80
2022-11-05T09:43:53.514Z,28.43
2022-11-05T09:47:00.503Z,20.37
2022-11-05T09:49:50.431Z,24.80
2022-11-05T09:52:38.396Z,22.27
2022-11-05T09:55:28.300Z,21.80
2022-11-05T09:58:29.017Z,21.83
2022-11-05T10:01:19.441Z,20.60
2022-11-05T10:04:09.558Z,23.33
2022-11-05T10:06:58.566Z,22.40
2022-11-05T10:09:47.963Z,20.13
2022-11-05T10:12:42.204Z,20.77
2022-11-05T10:15:30.980Z,21.53
2022-11-05T10:18:30.583Z,23.53
2022-11-05T10:21:32.371Z,22.47
2022-11-05T10:24:27.532Z,23.43
2022-11-05T10:27:19.794Z,24.70
2022-11-05T10:30:07.008Z,25.40
2022-11-05T10:32:56.298Z,22.20
2022-11-05T10:35:47.823Z,21.33
2022-11-05T10:38:34.746Z,26.20
2022-11-05T10:41:30.770Z,27.70
2022-11-05T10:44:31.129Z,24.20
2022-11-05T10:47:37.380Z,29.53
2022-11-05T10:50:29.681Z,27.97
2022-11-05T10:53:19.483Z,27.27
2022-11-05T10:56:26.350Z,28.80
2022-11-05T10:59:21.140Z,32.63
2022-11-05T11:02:23.130Z,30.33
2022-11-05T11:05:11.268Z,33.27
2022-11-05T11:08:07.178Z,34.43
2022-11-05T11:10:54.044Z,29.43
2022-11-05T11:13:52.115Z,33.20
2022-11-05T11:16:43.229Z,31.13
2022-11-05T11:19:31.271Z,31.67
2022-11-05T11:22:19.610Z,33.60
2022-11-05T11:25:24.055Z,27.83
2022-11-05T11:28:16.456Z,29.03
2022-11-05T11:31:09.051Z,34.60
2022-11-05T11:34:06.895Z,31.67
2022-11-05T11:36:55.184Z,31.13
2022-11-05T11:39:45.168Z,34.27
2022-11-05T11:42:34.187Z,30.63
2022-11-05T11:45:27.922Z,32.50
2022-11-05T11:48:19.338Z,29.63
2022-11-05T11:51:24.331Z,31.80
2022-11-05T11:54:21.352Z,29.10
2022-11-05T11:57:21.744Z,28.33
2022-11-05T12:00:09.847Z,30.10
2022-11-05T12:03:11.244Z,27.87
2022-11-05T12:06:05.476Z,29.27
2022-11-05T12:09:03.439Z,26.37
2022-11-05T12:11:53.105Z,21.67
2022-11-05T12:14:46.741Z,21.27
2022-11-05T12:17:49.083Z,17.63
2022-11-05T12:20:58.492Z,16.30
2022-11-05T12:24:09.051Z,15.43
2022-11-05T12:27:05.807Z,14.30
2022-11-05T12:30:01.806Z,15.80
2022-11-05T12:32:48.827Z,15.23
2022-11-05T12:35:48.250Z,15.93
2022-11-05T12:38:50.105Z,16.20
2022-11-05T12:41:46.370Z,12.67
2022-11-05T12:44:45.556Z,14.77
2022-11-05T12:47:38.576Z,14.10
2022-11-05T12:50:31.725Z,13.77
2022-11-05T12:53:37.420Z,14.13
2022-11-05T12:56:32.177Z,11.33
2022-11-05T12:59:18.986Z,10.17
2022-11-05T13:02:24.988Z,14.03
2022-11-05T13:05:32.078Z,11.60
2022-11-05T13:08:23.667Z,8.83
2022-11-05T13:11:22.691Z,11.47
2022-11-05T13:14:12.594Z,8.87
2022-11-05T13:16:59.375Z,11.83
2022-11-05T13:19:46.229Z,8.63
2022-11-05T13:22:37.738Z,9.10
2022-11-05T13:25:26.574Z,8.77
2022-11-05T13:28:13.326Z,8.57
2022-11-05T13:31:02.543Z,8.00
2022-11-05T13:33:51.134Z,8.93
2022-11-05T13:37:08.841Z,8.77
2022-11-05T13:39:57.621Z,9.73
2022-11-05T13:42:50.615Z,10.67
2022-11-05T13:45:37.529Z,8.50
2022-11-05T13:48:44.359Z,9.80
2022-11-05T13:51:40.002Z,11.60
2022-11-05T13:55:02.586Z,9.57
2022-11-05T13:57:55.630Z,10.50
2022-11-05T14:00:46.974Z,9.73
2022-11-05T14:03:34.217Z,10.50
2022-11-05T14:06:29.508Z,9.07
2022-11-05T14:09:19.561Z,10.67
2022-11-05T14:12:07.787Z,10.43
2022-11-05T14:14:59.430Z,9.00
2022-11-05T14:17:57.971Z,11.53
2022-11-05T14:21:05.098Z,12.97
2022-11-05T14:23:55.997Z,11.30
2022-11-05T14:26:42.877Z,10.10
2022-11-05T14:29:43.008Z,12.30
2022-11-05T14:32:42.507Z,9.73
2022-11-05T14:35:34.437Z,13.27
2022-11-05T14:38:23.618Z,9.40
2022-11-05T14:41:10.926Z,10.70
2022-11-05T14:43:59.794Z,11.10
2022-11-05T14:46:47.941Z,10.63
2022-11-05T14:49:37.018Z,14.23
2022-11-05T14:52:24.030Z,9.50
2022-11-05T14:55:25.004Z,13.33
2022-11-05T14:58:17.972Z,9.90
2022-11-05T15:01:09.125Z,14.10
2022-11-05T15:04:05.877Z,10.40
2022-11-05T15:07:02.045Z,13.53
2022-11-05T15:09:55.056Z,8.83
2022-11-05T15:12:41.843Z,13.57
2022-11-05T15:15:30.770Z,10.33
2022-11-05T15:18:21.842Z,10.87
2022-11-05T15:21:13.207Z,9.87
2022-11-05T15:24:01.825Z,10.83
2022-11-05T15:27:10.327Z,11.13
2022-11-05T15:29:57.260Z,8.93
2022-11-05T15:32:44.182Z,9.57
2022-11-05T15:35:31.047Z,11.00
2022-11-05T15:38:34.519Z,10.73
2022-11-05T15:41:23.231Z,10.27
2022-11-05T15:44:29.889Z,8.93
2022-11-05T15:47:27.322Z,9.40
2022-11-05T15:50:15.385Z,11.23
2022-11-05T15:53:41.702Z,10.10
2022-11-05T15:56:21.671Z,9.30
2022-11-05T15:59:18.150Z,11.23
2022-11-05T16:02:25.505Z,11.73
2022-11-05T16:05:13.389Z,6.80
2022-11-05T16:08:01.072Z,10.93
2022-11-05T16:10:49.521Z,8.93
2022-11-05T16:13:41.211Z,10.00
2022-11-05T16:16:33.179Z,12.47
2022-11-05T16:19:39.918Z,7.33
2022-11-05T16:22:43.911Z,7.77
2022-11-05T16:25:40.081Z,13.43
2022-11-05T16:28:28.252Z,7.37
2022-11-05T16:31:15.141Z,9.80
2022-11-05T16:34:02.074Z,9.13
2022-11-05T16:36:48.892Z,10.07
2022-11-05T16:39:35.810Z,9.87
2022-11-05T16:42:22.611Z,7.63
2022-11-05T16:45:14.053Z,7.80
2022-11-05T16:48:00.919Z,9.87
2022-11-05T16:50:47.767Z,7.97
2022-11-05T16:53:34.536Z,9.37
2022-11-05T16:56:22.519Z,11.70
2022-11-05T16:59:11.704Z,8.07
2022-11-05T17:01:59.197Z,12.20
2022-11-05T17:04:46.429Z,8.03
2022-11-05T17:07:38.513Z,10.97
2022-11-05T17:10:28.024Z,8.27
2022-11-05T17:13:15.938Z,11.03
2022-11-05T17:16:02.762Z,9.73
2022-11-05T17:18:49.662Z,10.53
2022-11-05T17:21:36.790Z,10.13
2022-11-05T17:24:23.725Z,14.37
2022-11-05T17:27:10.696Z,10.57
2022-11-05T17:29:57.468Z,10.83
2022-11-05T17:32:45.491Z,10.70
2022-11-05T17:35:32.737Z,6.33
2022-11-05T17:38:20.845Z,9.23
2022-11-05T17:41:11.831Z,8.67
2022-11-05T17:44:02.560Z,11.43
2022-11-05T17:46:50.452Z,10.70
2022-11-05T17:49:40.697Z,8.83
2022-11-05T17:52:29.371Z,14.87
2022-11-05T17:55:18.629Z,13.67
2022-11-05T17:58:06.467Z,11.77
2022-11-05T18:00:54.781Z,9.80
2022-11-05T18:03:43.025Z,9.77
2022-11-05T18:06:31.148Z,10.10
2022-11-05T18:09:20.834Z,10.73
2022-11-05T18:12:08.365Z,7.20
2022-11-05T18:14:55.877Z,8.53
2022-11-05T18:17:45.779Z,8.67
2022-11-05T18:20:32.921Z,8.33
2022-11-05T18:23:20.718Z,9.13
2022-11-05T18:26:14.983Z,8.93
2022-11-05T18:29:06.369Z,8.60
2022-11-05T18:31:55.605Z,6.43
2022-11-05T18:34:42.512Z,8.60
2022-11-05T18:37:29.379Z,8.80
2022-11-05T18:40:16.251Z,6.40
2022-11-05T18:43:03.179Z,7.93
2022-11-05T18:45:56.650Z,6.33
2022-11-05T18:48:46.058Z,6.63
2022-11-05T18:51:32.964Z,6.67
2022-11-05T18:54:20.182Z,11.17
2022-11-05T18:57:07.472Z,9.80
2022-11-05T18:59:57.002Z,7.50
2022-11-05T19:02:44.216Z,8.60
2022-11-05T19:05:31.374Z,6.83
2022-11-05T19:08:18.597Z,9.83
2022-11-05T19:11:09.712Z,8.03
2022-11-05T19:14:00.249Z,6.67
2022-11-05T19:16:47.906Z,6.53
2022-11-05T19:19:35.152Z,6.90
2022-11-05T19:22:22.346Z,9.83
2022-11-05T19:25:09.334Z,8.00
2022-11-05T19:27:58.801Z,7.93
2022-11-05T19:30:48.836Z,5.67
2022-11-05T19:33:35.850Z,7.73
2022-11-05T19:36:23.513Z,7.93
2022-11-05T19:39:12.543Z,5.83
2022-11-05T19:42:03.652Z,8.13
2022-11-05T19:44:51.129Z,6.57
2022-11-05T19:47:38.342Z,7.40
2022-11-05T19:50:25.372Z,5.83
2022-11-05T19:53:12.336Z,5.73
2022-11-05T19:55:59.290Z,9.30
2022-11-05T19:58:47.346Z,7.83
2022-11-05T20:01:34.922Z,5.07
2022-11-05T20:04:22.254Z,6.60
2022-11-05T20:07:09.173Z,6.40
2022-11-05T20:09:56.539Z,7.13
2022-11-05T20:12:43.576Z,7.10
2022-11-05T20:15:30.483Z,6.30
2022-11-05T20:18:17.538Z,6.87
2022-11-05T20:21:05.905Z,9.17
2022-11-05T20:23:55.444Z,7.17
2022-11-05T20:26:42.575Z,6.33
2022-11-05T20:29:35.279Z,5.33
2022-11-05T20:32:22.995Z,6.77
2022-11-05T20:35:10.186Z,7.70
2022-11-05T20:37:57.233Z,6.37
2022-11-05T20:40:44.134Z,6.27
2022-11-05T20:43:31.135Z,7.10
2022-11-05T20:46:19.191Z,6.20
2022-11-05T20:49:06.341Z,5.70
2022-11-05T20:51:53.420Z,6.77
2022-11-05T20:54:40.437Z,6.27
2022-11-05T20:57:27.921Z,7.77
2022-11-05T21:00:15.209Z,6.47
2022-11-05T21:03:02.393Z,6.50
2022-11-05T21:05:50.434Z,7.30
2022-11-05T21:08:37.701Z,7.10
2022-11-05T21:11:24.609Z,7.03
2022-11-05T21:14:11.455Z,7.80
2022-11-05T21:16:58.329Z,6.33
2022-11-05T21:19:45.527Z,5.57
2022-11-05T21:22:32.484Z,6.77
2022-11-05T21:25:19.335Z,4.83
2022-11-05T21:28:06.893Z,5.47
2022-11-05T21:30:53.690Z,7.57
2022-11-05T21:33:40.716Z,7.93
2022-11-05T21:36:31.020Z,6.20
2022-11-05T21:39:18.956Z,4.47
2022-11-05T21:42:05.831Z,6.57
2022-11-05T21:44:57.722Z,6.03
2022-11-05T21:47:47.034Z,7.93
2022-11-05T21:50:52.717Z,9.80
2022-11-05T21:54:01.764Z,6.57
2022-11-05T21:57:10.786Z,7.70
2022-11-05T22:00:00.680Z,9.93
2022-11-05T22:02:50.958Z,4.33
2022-11-05T22:05:38.160Z,7.57
2022-11-05T22:08:25.480Z,10.80
2022-11-05T22:11:17.520Z,6.00
2022-11-05T22:14:04.611Z,8.93
2022-11-05T22:16:51.791Z,6.50
2022-11-05T22:19:38.647Z,6.10
2022-11-05T22:22:25.510Z,4.80
2022-11-05T22:25:13.481Z,5.93
2022-11-05T22:28:00.257Z,7.87
2022-11-05T22:30:47.130Z,8.20
2022-11-05T22:33:34.099Z,7.33
2022-11-05T22:36:20.901Z,7.23
2022-11-05T22:39:07.778Z,5.10
2022-11-05T22:41:55.761Z,8.40
2022-11-05T22:44:42.759Z,8.77
2022-11-05T22:47:29.576Z,5.37
2022-11-05T22:50:16.435Z,7.90
2022-11-05T22:53:03.226Z,7.60
2022-11-05T22:55:50.105Z,6.37
2022-11-05T22:58:37.278Z,6.10
2022-11-05T23:01:24.444Z,9.17
2022-11-05T23:04:13.247Z,7.53
2022-11-05T23:07:23.164Z,5.57
2022-11-05T23:10:31.753Z,8.87
2022-11-05T23:13:18.563Z,7.87
2022-11-05T23:16:23.870Z,8.13
2022-11-05T23:19:29.114Z,7.60
2022-11-05T23:22:38.446Z,6.07
2022-11-05T23:25:25.322Z,8.80
2022-11-05T23:28:12.933Z,8.93
2022-11-05T23:31:18.606Z,8.60
2022-11-05T23:34:05.468Z,7.57
2022-11-05T23:37:10.706Z,6.97
2022-11-05T23:39:57.611Z,8.47
2022-11-05T23:43:03.620Z,6.77
2022-11-05T23:46:09.039Z,8.57
2022-11-05T23:48:55.844Z,8.70
2022-11-05T23:51:42.750Z,9.33
2022-11-05T23:54:29.611Z,7.53
2022-11-05T23:57:16.406Z,5.93
